Time,TemperatureF,DewpointF,PressureIn,WindDirection,WindDirectionDegrees,WindSpeedMPH,WindSpeedGustMPH,Humidity,HourlyPrecipIn,Conditions,Clouds,dailyrainin,SoftwareType,DateUTC
2013-01-27 00:03:00,47.0,44.0,29.87,North,0,0.0,0.0,89,0.02, +FZSN FG BLRA SQ BLRA,OVC100 VV000 5SM,0.00,WUHU216HW,2013-01-27 07:03:00,
2013-01-27 00:08:00,47.0,44.0,29.87,North,0,0.0,0.0,89,0.02, +FZSN FG BLRA SQ BLRA,OVC100 VV000 5SM,0.00,WUHU216HW,2013-01-27 07:08:00,
2013-01-27 00:13:00,47.0,44.0,29.87,North,0,0.0,0.0,89,0.02, +FZSN FG BLRA SQ BLRA,OVC100 VV000 5SM,0.00,WUHU216HW,2013-01-27 07:13:00,
2013-01-27 00:18:00,47.0,44.0,29.87,North,0,0.0,0.0,89,0.02, +FZSN FG BLRA SQ BLRA,OVC100 VV000 5SM,0.00,WUHU216HW,2013-01-27 07:18:00,
2013-01-27 00:23:00,47.0,44.3,29.87,North,0,0.0,0.0,90,0.02, +FZSN FG BLRA SQ BLRA,OVC100 VV000 5SM,0.00,WUHU216HW,2013-01-27 07:23:00,
2013-01-27 00:28:00,47.0,44.0,29.87,North,0,0.0,0.0,89,0.02, +FZSN FG BLRA SQ BLRA,OVC100 VV000 5SM,0.00,WUHU216HW,2013-01-27 07:28:00,
2013-01-27 00:33:00,46.8,43.8,29.87,North,0,0.0,0.0,89,0.02, +FZSN FG BLRA SQ BLRA,OVC100 VV000 5SM,0.01,WUHU216HW,2013-01-27 07:33:00,
2013-01-27 00:38:00,47.0,44.0,29.87,North,0,0.0,0.0,89,0.02, +FZSN FG BLRA SQ BLRA,OVC100 VV000 5SM,0.01,WUHU216HW,2013-01-27 07:38:00,
2013-01-27 00:43:00,46.8,44.1,29.87,North,0,0.0,0.0,90,0.02, +FZSN FG BLRA SQ BLRA,OVC100 VV000 5SM,0.01,WUHU216HW,2013-01-27 07:43:00,
2013-01-27 00:48:00,46.8,44.1,29.87,North,0,0.0,0.0,90,0.02, +FZSN FG BLRA SQ BLRA,OVC100 VV000 5SM,0.01,WUHU216HW,2013-01-27 07:48:00,
2013-01-27 00:53:00,46.8,44.1,29.87,North,0,0.0,0.0,90,0.02, +FZSN FG BLRA SQ BLRA,OVC100 VV000 5SM,0.01,WUHU216HW,2013-01-27 07:53:00,
2013-01-27 00:58:00,46.8,44.1,29.87,North,0,0.0,0.0,90,0.01, +FZSN FG BLRA SQ BLRA,OVC100 VV000 5SM,0.01,WUHU216HW,2013-01-27 07:58:00,
2013-01-27 01:03:00,46.8,44.1,29.87,North,0,0.0,0.0,90,0.02, +FZSN FG BLRA SQ BLRA,OVC100 VV000 5SM,0.01,WUHU216HW,2013-01-27 08:03:00,
2013-01-27 01:08:00,46.6,43.7,29.87,North,0,0.0,0.0,89,0.02, +FZSN FG BLRA SQ BLRA,OVC100 VV000 5SM,0.01,WUHU216HW,2013-01-27 08:08:00,
2013-01-27 01:13:00,46.6,43.7,29.87,North,0,0.0,0.0,89,0.02, +FZSN FG BLRA SQ BLRA,OVC100 VV000 5SM,0.01,WUHU216HW,2013-01-27 08:13:00,
2013-01-27 01:18:00,46.4,43.5,29.87,North,0,0.0,0.0,89,0.02, +FZSN FG BLRA SQ BLRA,OVC100 VV000 5SM,0.01,WUHU216HW,2013-01-27 08:18:00,
2013-01-27 01:23:00,46.4,43.7,29.86,North,0,0.0,0.0,90,0.02, +FZSN FG BLRA SQ BLRA,OVC100 VV000 5SM,0.01,WUHU216HW,2013-01-27 08:23:00,
2013-01-27 01:28:00,46.4,43.7,29.86,North,0,0.0,0.0,90,0.01, +FZSN FG BLRA SQ BLRA,OVC100 VV000 5SM,0.01,WUHU216HW,2013-01-27 08:28:00,
2013-01-27 01:33:00,46.3,43.6,29.86,North,0,0.0,0.0,90,0.01, +FZSN FG BLRA SQ BLRA,OVC100 VV000 5SM,0.01,WUHU216HW,2013-01-27 08:33:00,
2013-01-27 01:38:00,46.3,43.6,29.87,North,0,0.0,0.0,90,0.02, +FZSN FG BLRA SQ BLRA,OVC100 VV000 5SM,0.03,WUHU216HW,2013-01-27 08:38:00,
2013-01-27 01:43:00,46.3,43.6,29.87,North,0,0.0,0.0,90,0.02, +FZSN FG BLRA SQ BLRA,OVC100 VV000 5SM,0.03,WUHU216HW,2013-01-27 08:43:00,
2013-01-27 01:48:00,46.3,43.6,29.87,North,0,0.0,0.0,90,0.02, +FZSN FG BLRA SQ BLRA,OVC100 VV000 5SM,0.03,WUHU216HW,2013-01-27 08:48:00,
2013-01-27 01:53:00,46.3,43.6,29.87,North,0,0.0,0.0,90,0.02, +FZSN FG BLRA SQ BLRA,OVC100 VV000 5SM,0.03,WUHU216HW,2013-01-27 08:53:00,
2013-01-27 01:58:00,46.3,43.6,29.87,North,0,0.0,0.0,90,0.02, +FZSN FG BLRA SQ BLRA,OVC100 VV000 5SM,0.03,WUHU216HW,2013-01-27 08:58:00,
2013-01-27 02:03:00,46.3,43.6,29.87,North,0,0.0,0.0,90,0.01, +FZSN FG BLRA SQ BLRA,OVC100 VV000 5SM,0.03,WUHU216HW,2013-01-27 09:03:00,
2013-01-27 02:08:00,46.1,43.4,29.87,North,0,0.0,0.0,90,0.01, +FZSN FG BLRA SQ BLRA,OVC100 VV000 5SM,0.03,WUHU216HW,2013-01-27 09:08:00,
2013-01-27 02:13:00,46.1,43.4,29.87,North,0,0.0,0.0,90,0.02, +FZSN FG BLRA SQ BLRA,OVC100 VV000 5SM,0.04,WUHU216HW,2013-01-27 09:13:00,
2013-01-27 02:18:00,46.1,43.4,29.87,North,0,0.0,0.0,90,0.02, +FZSN FG BLRA SQ BLRA,OVC100 VV000 5SM,0.04,WUHU216HW,2013-01-27 09:18:00,
2013-01-27 02:23:00,46.1,43.4,29.87,North,0,0.0,0.0,90,0.02, +FZSN FG BLRA SQ BLRA,OVC100 VV000 5SM,0.04,WUHU216HW,2013-01-27 09:23:00,
2013-01-27 02:28:00,45.9,43.2,29.87,North,0,0.0,0.0,90,0.02, +FZSN FG BLRA SQ BLRA,OVC100 VV000 5SM,0.04,WUHU216HW,2013-01-27 09:28:00,
2013-01-27 02:33:00,46.1,43.4,29.87,North,0,0.0,0.0,90,0.02, +FZSN FG BLRA SQ BLRA,OVC100 VV000 5SM,0.04,WUHU216HW,2013-01-27 09:33:00,
2013-01-27 02:38:00,46.1,43.4,29.87,North,0,0.0,0.0,90,0.01, +FZSN FG BLRA SQ BLRA,OVC100 VV000 5SM,0.04,WUHU216HW,2013-01-27 09:38:00,
2013-01-27 02:43:00,46.1,43.4,29.87,North,0,0.0,0.0,90,0.01, +FZSN FG BLRA SQ BLRA,OVC100 VV000 5SM,0.04,WUHU216HW,2013-01-27 09:43:00,
2013-01-27 02:48:00,46.1,43.4,29.87,North,0,0.0,0.0,90,0.01, +FZSN FG BLRA SQ BLRA,OVC100 VV000 5SM,0.04,WUHU216HW,2013-01-27 09:48:00,
2013-01-27 02:53:00,46.1,43.4,29.86,North,0,0.0,0.0,90,0.01, +FZSN FG BLRA SQ BLRA,OVC100 VV000 5SM,0.04,WUHU216HW,2013-01-27 09:53:00,
2013-01-27 02:58:00,46.1,43.7,29.86,North,0,0.0,0.0,91,0.02, +FZSN FG BLRA SQ BLRA,OVC100 VV000 5SM,0.05,WUHU216HW,2013-01-27 09:58:00,
2013-01-27 03:03:00,46.1,43.7,29.86,North,0,0.0,0.0,91,0.02, +FZSN FG BLRA SQ BLRA,OVC100 VV000 5SM,0.05,WUHU216HW,2013-01-27 10:03:00,
2013-01-27 03:08:00,46.1,43.7,29.86,North,0,0.0,0.0,91,0.01, +FZSN FG BLRA SQ BLRA,OVC100 VV000 5SM,0.05,WUHU216HW,2013-01-27 10:08:00,
2013-01-27 03:13:00,46.1,43.4,29.86,North,0,0.0,0.0,90,0.01, +FZSN FG BLRA SQ BLRA,OVC100 VV000 5SM,0.05,WUHU216HW,2013-01-27 10:13:00,
2013-01-27 03:18:00,45.9,43.2,29.86,North,0,0.0,0.0,90,0.01, +FZSN FG BLRA SQ BLRA,OVC100 VV000 5SM,0.05,WUHU216HW,2013-01-27 10:18:00,
2013-01-27 03:23:00,45.9,43.2,29.86,North,0,0.0,0.0,90,0.01, +FZSN FG BLRA SQ BLRA,OVC100 VV000 5SM,0.05,WUHU216HW,2013-01-27 10:23:00,
2013-01-27 03:28:00,45.7,43.0,29.86,North,0,0.0,0.0,90,0.01, +FZSN FG BLRA SQ BLRA,OVC100 VV000 5SM,0.05,WUHU216HW,2013-01-27 10:28:00,
2013-01-27 03:33:00,45.7,43.0,29.86,North,0,0.0,0.0,90,0.02, +FZSN FG BLRA SQ BLRA,OVC100 VV000 5SM,0.06,WUHU216HW,2013-01-27 10:33:00,
2013-01-27 03:38:00,45.7,43.0,29.86,North,0,0.0,0.0,90,0.02, +FZSN FG BLRA SQ BLRA,OVC100 VV000 5SM,0.06,WUHU216HW,2013-01-27 10:38:00,
2013-01-27 03:43:00,45.7,43.0,29.86,North,0,0.0,0.0,90,0.02, +FZSN FG BLRA SQ BLRA,OVC100 VV000 5SM,0.06,WUHU216HW,2013-01-27 10:43:00,
2013-01-27 03:48:00,45.5,42.8,29.86,North,0,0.0,0.0,90,0.02, +FZSN FG BLRA SQ BLRA,OVC100 VV000 5SM,0.06,WUHU216HW,2013-01-27 10:48:00,
2013-01-27 03:53:00,45.5,43.1,29.86,North,0,0.0,0.0,91,0.01, +FZSN FG BLRA SQ BLRA,OVC100 VV000 5SM,0.06,WUHU216HW,2013-01-27 10:53:00,
2013-01-27 03:58:00,45.5,43.1,29.86,North,0,0.0,0.0,91,0.01, +FZSN FG BLRA SQ BLRA,OVC100 VV000 5SM,0.06,WUHU216HW,2013-01-27 10:58:00,
2013-01-27 04:03:00,45.4,42.9,29.86,North,0,0.0,0.0,91,0.01, +FZSN FG BLRA SQ BLRA,OVC100 VV000 5SM,0.06,WUHU216HW,2013-01-27 11:03:00,
2013-01-27 04:08:00,45.4,42.9,29.86,North,0,0.0,0.0,91,0.01, +FZSN FG BLRA SQ BLRA,OVC100 VV000 5SM,0.06,WUHU216HW,2013-01-27 11:08:00,
2013-01-27 04:13:00,45.2,42.8,29.86,North,0,0.0,0.0,91,0.01, +FZSN FG BLRA SQ BLRA,OVC100 VV000 5SM,0.06,WUHU216HW,2013-01-27 11:13:00,
2013-01-27 04:18:00,45.4,42.9,29.86,North,0,0.0,0.0,91,0.01, +FZSN FG BLRA SQ BLRA,OVC100 VV000 5SM,0.06,WUHU216HW,2013-01-27 11:18:00,
2013-01-27 04:23:00,45.4,42.9,29.85,North,0,0.0,0.0,91,0.02, +FZSN FG BLRA SQ BLRA,OVC100 VV000 5SM,0.07,WUHU216HW,2013-01-27 11:23:00,
2013-01-27 04:28:00,45.5,43.1,29.85,North,0,0.0,0.0,91,0.02, +FZSN FG BLRA SQ BLRA,OVC100 VV000 5SM,0.07,WUHU216HW,2013-01-27 11:28:00,
2013-01-27 04:33:00,45.7,43.3,29.85,North,0,0.0,0.0,91,0.01, +FZSN FG BLRA SQ BLRA,OVC100 VV000 5SM,0.07,WUHU216HW,2013-01-27 11:33:00,
2013-01-27 04:38:00,45.7,43.3,29.85,North,0,0.0,0.0,91,0.01, +FZSN FG BLRA SQ BLRA,OVC100 VV000 5SM,0.07,WUHU216HW,2013-01-27 11:38:00,
2013-01-27 04:43:00,45.7,43.3,29.85,North,0,0.0,0.0,91,0.01, +FZSN FG BLRA SQ BLRA,OVC100 VV000 5SM,0.07,WUHU216HW,2013-01-27 11:43:00,
2013-01-27 04:48:00,45.7,43.3,29.85,North,0,0.0,0.0,91,0.01, +FZSN FG BLRA SQ BLRA,OVC100 VV000 5SM,0.07,WUHU216HW,2013-01-27 11:48:00,
2013-01-27 04:53:00,45.7,43.3,29.85,North,0,0.0,0.0,91,0.01, +FZSN FG BLRA SQ BLRA,OVC100 VV000 5SM,0.07,WUHU216HW,2013-01-27 11:53:00,
2013-01-27 04:58:00,45.7,43.3,29.85,North,0,0.0,0.0,91,0.01, +FZSN FG BLRA SQ BLRA,OVC100 VV000 5SM,0.07,WUHU216HW,2013-01-27 11:58:00,
2013-01-27 05:03:00,45.7,43.3,29.85,North,0,0.0,0.0,91,0.01, +FZSN FG BLRA SQ BLRA,OVC100 VV000 5SM,0.07,WUHU216HW,2013-01-27 12:03:00,
2013-01-27 05:08:00,45.7,43.3,29.85,North,0,0.0,0.0,91,0.02, +FZSN FG BLRA SQ BLRA,OVC100 VV000 5SM,0.08,WUHU216HW,2013-01-27 12:08:00,
2013-01-27 05:13:00,45.5,43.1,29.85,North,0,0.0,0.0,91,0.02, +FZSN FG BLRA SQ BLRA,OVC100 VV000 5SM,0.08,WUHU216HW,2013-01-27 12:13:00,
2013-01-27 05:18:00,45.5,43.1,29.85,North,0,0.0,0.0,91,0.02, +FZSN FG BLRA SQ BLRA,OVC100 VV000 5SM,0.08,WUHU216HW,2013-01-27 12:18:00,
2013-01-27 05:23:00,45.5,43.1,29.85,North,0,0.0,0.0,91,0.01, +FZSN FG BLRA SQ BLRA,OVC100 VV000 5SM,0.08,WUHU216HW,2013-01-27 12:23:00,
2013-01-27 05:28:00,45.4,42.9,29.85,North,0,0.0,0.0,91,0.01, +FZSN FG BLRA SQ BLRA,OVC100 VV000 5SM,0.08,WUHU216HW,2013-01-27 12:28:00,
2013-01-27 05:33:00,45.4,42.9,29.85,North,0,0.0,0.0,91,0.01, +FZSN FG BLRA SQ BLRA,OVC100 VV000 5SM,0.08,WUHU216HW,2013-01-27 12:33:00,
2013-01-27 05:38:00,45.4,42.9,29.85,North,0,0.0,0.0,91,0.01, +FZSN FG BLRA SQ BLRA,OVC100 VV000 5SM,0.08,WUHU216HW,2013-01-27 12:38:00,
2013-01-27 05:43:00,45.4,42.9,29.85,North,0,0.0,0.0,91,0.01, +FZSN FG BLRA SQ BLRA,OVC100 VV000 5SM,0.08,WUHU216HW,2013-01-27 12:43:00,
2013-01-27 05:48:00,45.0,42.6,29.85,North,0,0.0,0.0,91,0.01, +FZSN FG BLRA SQ BLRA,OVC100 VV000 5SM,0.08,WUHU216HW,2013-01-27 12:48:00,
2013-01-27 05:53:00,45.0,42.6,29.85,North,0,0.0,0.0,91,0.01, +FZSN FG BLRA SQ BLRA,OVC100 VV000 5SM,0.08,WUHU216HW,2013-01-27 12:53:00,
2013-01-27 05:58:00,45.0,42.6,29.85,North,0,0.0,0.0,91,0.02, +FZSN FG BLRA SQ BLRA,OVC100 VV000 5SM,0.09,WUHU216HW,2013-01-27 12:58:00,
2013-01-27 06:03:00,45.0,42.6,29.85,North,0,0.0,0.0,91,0.02, +FZSN FG BLRA SQ BLRA,OVC100 VV000 5SM,0.09,WUHU216HW,2013-01-27 13:03:00,
2013-01-27 06:08:00,45.2,42.8,29.85,North,0,0.0,0.0,91,0.01, +FZSN FG BLRA SQ BLRA,OVC100 VV000 5SM,0.09,WUHU216HW,2013-01-27 13:08:00,
2013-01-27 06:13:00,45.2,42.8,29.85,North,0,0.0,0.0,91,0.01, +FZSN FG BLRA SQ BLRA,OVC100 VV000 5SM,0.09,WUHU216HW,2013-01-27 13:13:00,
2013-01-27 06:18:00,45.2,43.0,29.85,North,0,0.0,0.0,92,0.01, +FZSN FG BLRA SQ BLRA,OVC100 VV000 5SM,0.09,WUHU216HW,2013-01-27 13:18:00,
2013-01-27 06:23:00,45.4,42.9,29.85,North,0,0.0,0.0,91,0.01, +FZSN FG BLRA SQ BLRA,OVC100 VV000 5SM,0.09,WUHU216HW,2013-01-27 13:23:00,
2013-01-27 06:28:00,45.4,42.9,29.85,North,0,0.0,0.0,91,0.01, +FZSN FG BLRA SQ BLRA,OVC100 VV000 5SM,0.09,WUHU216HW,2013-01-27 13:28:00,
2013-01-27 06:33:00,45.5,43.1,29.85,North,0,0.0,0.0,91,0.01, +FZSN FG BLRA SQ BLRA,OVC100 VV000 5SM,0.09,WUHU216HW,2013-01-27 13:33:00,
2013-01-27 06:38:00,45.5,43.1,29.85,North,0,0.0,0.0,91,0.01, +FZSN FG BLRA SQ BLRA,OVC100 VV000 5SM,0.09,WUHU216HW,2013-01-27 13:38:00,
2013-01-27 06:43:00,45.5,43.4,29.86,North,0,0.0,0.0,92,0.01, +FZSN FG BLRA SQ BLRA,OVC100 VV000 5SM,0.09,WUHU216HW,2013-01-27 13:43:00,
2013-01-27 06:48:00,45.5,43.1,29.85,North,0,0.0,0.0,91,0.02, +FZSN FG BLRA SQ BLRA,OVC100 VV000 5SM,0.10,WUHU216HW,2013-01-27 13:48:00,
2013-01-27 06:53:00,45.7,43.3,29.86,North,0,0.0,0.0,91,0.02, +FZSN FG BLRA SQ BLRA,OVC100 VV000 5SM,0.10,WUHU216HW,2013-01-27 13:53:00,
2013-01-27 06:58:00,45.7,43.3,29.86,North,0,0.0,0.0,91,0.01, +FZSN FG BLRA SQ BLRA,OVC100 VV000 5SM,0.10,WUHU216HW,2013-01-27 13:58:00,
2013-01-27 07:03:00,45.7,43.3,29.86,North,0,0.0,0.0,91,0.01, +FZSN FG BLRA SQ BLRA,OVC100 VV000 5SM,0.10,WUHU216HW,2013-01-27 14:03:00,
2013-01-27 07:08:00,45.7,43.3,29.86,North,0,0.0,0.0,91,0.01, +FZSN FG BLRA SQ BLRA,OVC100 VV000 5SM,0.10,WUHU216HW,2013-01-27 14:08:00,
2013-01-27 07:13:00,45.7,43.3,29.86,North,0,0.0,0.0,91,0.01, +FZSN FG BLRA SQ BLRA,OVC100 VV000 5SM,0.10,WUHU216HW,2013-01-27 14:13:00,
2013-01-27 07:18:00,45.9,43.7,29.86,North,0,0.0,0.0,92,0.01, +FZSN FG BLRA SQ BLRA,OVC100 VV000 5SM,0.10,WUHU216HW,2013-01-27 14:18:00,
2013-01-27 07:23:00,45.9,43.7,29.86,North,0,0.0,0.0,92,0.01, +FZSN FG BLRA SQ BLRA,OVC100 VV000 5SM,0.10,WUHU216HW,2013-01-27 14:23:00,
2013-01-27 07:28:00,45.9,43.7,29.86,North,0,0.0,0.0,92,0.01, +FZSN FG BLRA SQ BLRA,OVC100 VV000 5SM,0.10,WUHU216HW,2013-01-27 14:28:00,
2013-01-27 07:33:00,46.1,43.9,29.86,North,0,0.0,0.0,92,0.01, +FZSN FG BLRA SQ BLRA,OVC100 VV000 5SM,0.10,WUHU216HW,2013-01-27 14:33:00,
2013-01-27 07:38:00,46.1,43.9,29.86,North,0,0.0,0.0,92,0.01, +FZSN FG BLRA SQ BLRA,OVC100 VV000 5SM,0.10,WUHU216HW,2013-01-27 14:38:00,
2013-01-27 07:43:00,46.1,43.7,29.87,North,0,0.0,0.0,91,0.02, +FZSN FG BLRA SQ BLRA,OVC100 VV000 5SM,0.11,WUHU216HW,2013-01-27 14:43:00,
2013-01-27 07:48:00,46.1,43.7,29.87,North,0,0.0,0.0,91,0.01, +FZSN FG BLRA SQ BLRA,OVC100 VV000 5SM,0.11,WUHU216HW,2013-01-27 14:48:00,
2013-01-27 07:53:00,46.1,43.7,29.87,North,0,0.0,0.0,91,0.01, +FZSN FG BLRA SQ BLRA,OVC100 VV000 5SM,0.11,WUHU216HW,2013-01-27 14:53:00,
2013-01-27 07:58:00,46.1,43.7,29.87,North,0,0.0,0.0,91,0.01, +FZSN FG BLRA SQ BLRA,OVC100 VV000 5SM,0.11,WUHU216HW,2013-01-27 14:58:00,
2013-01-27 08:03:00,46.3,43.8,29.87,North,0,0.0,0.0,91,0.01, +FZSN FG BLRA SQ BLRA,OVC100 VV000 5SM,0.11,WUHU216HW,2013-01-27 15:03:00,
2013-01-27 08:08:00,46.4,44.0,29.87,North,0,0.0,0.0,91,0.01, +FZSN FG BLRA SQ BLRA,OVC100 VV000 5SM,0.11,WUHU216HW,2013-01-27 15:08:00,
2013-01-27 08:13:00,46.4,44.0,29.87,North,0,0.0,0.0,91,0.01, +FZSN FG BLRA SQ BLRA,OVC100 VV000 5SM,0.11,WUHU216HW,2013-01-27 15:13:00,
2013-01-27 08:18:00,46.4,44.0,29.87,North,0,0.0,0.0,91,0.01, +FZSN FG BLRA SQ BLRA,OVC100 VV000 5SM,0.11,WUHU216HW,2013-01-27 15:18:00,
2013-01-27 08:23:00,46.6,44.2,29.87,North,0,0.0,0.0,91,0.01, +FZSN FG BLRA SQ BLRA,OVC100 VV000 5SM,0.11,WUHU216HW,2013-01-27 15:23:00,
2013-01-27 08:28:00,46.6,44.2,29.87,North,0,0.0,0.0,91,0.01, +FZSN FG BLRA SQ BLRA,OVC100 VV000 5SM,0.11,WUHU216HW,2013-01-27 15:28:00,
2013-01-27 08:33:00,46.8,44.4,29.87,North,0,0.0,0.0,91,0.01, +FZSN FG BLRA SQ BLRA,OVC100 VV000 5SM,0.11,WUHU216HW,2013-01-27 15:33:00,
2013-01-27 08:38:00,46.8,44.4,29.87,North,0,0.0,0.0,91,0.02, +FZSN FG BLRA SQ BLRA,OVC100 VV000 5SM,0.12,WUHU216HW,2013-01-27 15:38:00,
2013-01-27 08:43:00,47.2,44.5,29.87,North,0,0.0,0.0,90,0.01, +FZSN FG BLRA SQ BLRA,OVC100 VV000 5SM,0.12,WUHU216HW,2013-01-27 15:43:00,
2013-01-27 08:48:00,47.3,44.4,29.87,North,0,0.0,0.0,89,0.01, +FZSN FG BLRA SQ BLRA,OVC100 VV000 5SM,0.12,WUHU216HW,2013-01-27 15:48:00,
2013-01-27 08:53:00,47.5,44.2,29.87,North,0,0.0,0.0,88,0.01, +FZSN FG BLRA SQ BLRA,OVC100 VV000 5SM,0.12,WUHU216HW,2013-01-27 15:53:00,
2013-01-27 08:58:00,47.7,44.4,29.87,North,0,0.0,0.0,88,0.01, +FZSN FG BLRA SQ BLRA,OVC100 VV000 5SM,0.12,WUHU216HW,2013-01-27 15:58:00,
2013-01-27 09:03:00,47.9,44.6,29.87,North,0,0.0,0.0,88,0.01, +FZSN FG BLRA SQ BLRA,OVC100 VV000 5SM,0.12,WUHU216HW,2013-01-27 16:03:00,
2013-01-27 09:08:00,47.9,44.2,29.87,North,0,0.0,0.0,87,0.01, +FZSN FG BLRA SQ BLRA,OVC100 VV000 5SM,0.12,WUHU216HW,2013-01-27 16:08:00,
2013-01-27 09:13:00,47.9,44.2,29.88,North,0,0.0,0.0,87,0.01, +FZSN FG BLRA SQ BLRA,OVC100 VV000 5SM,0.12,WUHU216HW,2013-01-27 16:13:00,
2013-01-27 09:18:00,47.9,44.2,29.88,North,0,0.0,0.0,87,0.01, +FZSN FG BLRA SQ BLRA,OVC100 VV000 5SM,0.12,WUHU216HW,2013-01-27 16:18:00,
2013-01-27 09:23:00,47.9,44.2,29.88,North,0,0.0,0.0,87,0.01, +FZSN FG BLRA SQ BLRA,OVC100 VV000 5SM,0.12,WUHU216HW,2013-01-27 16:23:00,
2013-01-27 09:28:00,48.2,44.3,29.88,North,0,0.0,0.0,86,0.01, +FZSN FG BLRA SQ BLRA,OVC100 VV000 5SM,0.12,WUHU216HW,2013-01-27 16:28:00,
2013-01-27 09:33:00,48.2,44.3,29.88,North,0,0.0,0.0,86,0.01, +FZSN FG BLRA SQ BLRA,OVC100 VV000 5SM,0.12,WUHU216HW,2013-01-27 16:33:00,
2013-01-27 09:38:00,48.4,44.4,29.88,North,0,0.0,0.0,86,0.00, +FZSN FG BLRA SQ BLRA,OVC100 VV000 5SM,0.12,WUHU216HW,2013-01-27 16:38:00,
2013-01-27 09:43:00,48.6,44.6,29.88,North,0,0.0,0.0,86,0.00, +FZSN FG BLRA SQ BLRA,OVC100 VV000 5SM,0.12,WUHU216HW,2013-01-27 16:43:00,
2013-01-27 09:48:00,48.8,44.5,29.88,North,0,0.0,0.0,85,0.00, +FZSN FG BLRA SQ BLRA,OVC100 VV000 5SM,0.12,WUHU216HW,2013-01-27 16:48:00,
2013-01-27 09:53:00,49.0,44.7,29.88,North,0,0.0,0.0,85,0.00, +FZSN FG BLRA SQ BLRA,OVC100 VV000 5SM,0.12,WUHU216HW,2013-01-27 16:53:00,
2013-01-27 09:58:00,49.1,44.8,29.88,North,0,0.0,0.0,85,0.00, +FZSN FG BLRA SQ BLRA,OVC100 VV000 5SM,0.12,WUHU216HW,2013-01-27 16:58:00,
2013-01-27 10:03:00,49.3,44.7,29.88,North,0,0.0,0.0,84,0.00, +FZSN FG BLRA SQ BLRA,OVC100 VV000 5SM,0.12,WUHU216HW,2013-01-27 17:03:00,
2013-01-27 10:08:00,49.3,44.0,29.88,North,0,0.0,0.0,82,0.00, +FZSN FG BLRA SQ BLRA,OVC100 VV000 5SM,0.12,WUHU216HW,2013-01-27 17:08:00,
2013-01-27 10:13:00,49.3,44.3,29.89,North,0,0.0,0.0,83,0.00, +FZSN FG BLRA SQ BLRA,OVC100 VV000 5SM,0.12,WUHU216HW,2013-01-27 17:13:00,
2013-01-27 10:18:00,49.7,44.4,29.89,North,0,0.0,0.0,82,0.00, +FZSN FG BLRA SQ BLRA,OVC100 VV000 5SM,0.12,WUHU216HW,2013-01-27 17:18:00,
2013-01-27 10:23:00,49.9,44.6,29.88,North,0,0.0,0.0,82,0.00, +FZSN FG BLRA SQ BLRA,OVC100 VV000 5SM,0.12,WUHU216HW,2013-01-27 17:23:00,
2013-01-27 10:28:00,49.7,44.0,29.88,North,0,0.0,0.0,81,0.00, +FZSN FG BLRA SQ BLRA,OVC100 VV000 5SM,0.12,WUHU216HW,2013-01-27 17:28:00,
2013-01-27 10:33:00,49.5,44.2,29.88,North,0,0.0,0.0,82,0.00, +FZSN FG BLRA SQ BLRA,OVC100 VV000 5SM,0.12,WUHU216HW,2013-01-27 17:33:00,
2013-01-27 10:38:00,49.7,44.0,29.88,North,0,0.0,0.0,81,0.00, +FZSN FG BLRA SQ BLRA,OVC100 VV000 5SM,0.12,WUHU216HW,2013-01-27 17:38:00,
2013-01-27 10:43:00,49.9,43.9,29.88,North,0,0.0,0.0,80,0.00, +FZSN FG BLRA SQ BLRA,OVC100 VV000 5SM,0.12,WUHU216HW,2013-01-27 17:43:00,
2013-01-27 10:48:00,50.6,44.3,29.88,North,0,0.0,0.0,79,0.00, +FZSN FG BLRA SQ BLRA,OVC100 VV000 5SM,0.12,WUHU216HW,2013-01-27 17:48:00,
2013-01-27 10:53:00,50.6,43.9,29.88,North,0,0.0,0.0,78,0.00, +FZSN FG BLRA SQ BLRA,OVC100 VV000 5SM,0.12,WUHU216HW,2013-01-27 17:53:00,
2013-01-27 10:58:00,50.8,44.1,29.88,North,0,0.0,0.0,78,0.00, +FZSN FG BLRA SQ BLRA,OVC100 VV000 5SM,0.12,WUHU216HW,2013-01-27 17:58:00,
2013-01-27 11:03:00,51.1,43.8,29.88,North,0,0.0,0.0,76,0.00, +FZSN FG BLRA SQ BLRA,OVC100 VV000 5SM,0.12,WUHU216HW,2013-01-27 18:03:00,
2013-01-27 11:08:00,51.8,43.5,29.88,North,0,0.0,0.0,73,0.00, +FZSN FG BLRA SQ BLRA,OVC100 VV000 5SM,0.12,WUHU216HW,2013-01-27 18:08:00,
2013-01-27 11:13:00,52.7,45.0,29.87,North,0,0.0,0.0,75,0.00, +FZSN FG BLRA SQ BLRA,OVC100 VV000 5SM,0.12,WUHU216HW,2013-01-27 18:13:00,
2013-01-27 11:18:00,53.1,44.3,29.87,North,0,0.0,0.0,72,0.00, +FZSN FG BLRA SQ BLRA,OVC100 VV000 5SM,0.12,WUHU216HW,2013-01-27 18:18:00,
2013-01-27 11:23:00,53.5,45.0,29.87,North,0,0.0,0.0,73,0.00, +FZSN FG BLRA SQ BLRA,OVC100 VV000 5SM,0.12,WUHU216HW,2013-01-27 18:23:00,
2013-01-27 11:28:00,53.1,44.3,29.87,North,0,0.0,0.0,72,0.00, +FZSN FG BLRA SQ BLRA,OVC100 VV000 5SM,0.12,WUHU216HW,2013-01-27 18:28:00,
2013-01-27 11:33:00,52.9,43.8,29.87,North,0,0.0,0.0,71,0.00, +FZSN FG BLRA SQ BLRA,OVC100 VV000 5SM,0.12,WUHU216HW,2013-01-27 18:33:00,
2013-01-27 11:38:00,52.6,43.5,29.87,North,0,0.0,0.0,71,0.00, +FZSN FG BLRA SQ BLRA,OVC100 VV000 5SM,0.12,WUHU216HW,2013-01-27 18:38:00,
2013-01-27 11:43:00,52.2,43.5,29.87,North,0,0.0,0.0,72,0.00, +FZSN FG BLRA SQ BLRA,OVC100 VV000 5SM,0.12,WUHU216HW,2013-01-27 18:43:00,
2013-01-27 11:48:00,52.2,43.8,29.87,North,0,0.0,0.0,73,0.00, +FZSN FG BLRA SQ BLRA,OVC100 VV000 5SM,0.12,WUHU216HW,2013-01-27 18:48:00,
2013-01-27 11:53:00,52.9,44.2,29.87,North,0,0.0,0.0,72,0.00, +FZSN FG BLRA SQ BLRA,OVC100 VV000 5SM,0.12,WUHU216HW,2013-01-27 18:53:00,
2013-01-27 11:58:00,53.6,45.2,29.87,North,0,0.0,0.0,73,0.00, +FZSN FG BLRA SQ BLRA,OVC100 VV000 5SM,0.12,WUHU216HW,2013-01-27 18:58:00,
2013-01-27 12:03:00,53.8,43.9,29.86,North,0,0.0,0.0,69,0.00, +FZSN FG BLRA SQ BLRA,OVC100 VV000 5SM,0.12,WUHU216HW,2013-01-27 19:03:00,
2013-01-27 12:08:00,53.8,43.1,29.86,North,0,0.0,0.0,67,0.00, +FZSN FG BLRA SQ BLRA,OVC100 VV000 5SM,0.12,WUHU216HW,2013-01-27 19:08:00,
2013-01-27 12:13:00,53.6,42.5,29.86,North,0,0.0,0.0,66,0.00, +FZSN FG BLRA SQ BLRA,OVC100 VV000 5SM,0.12,WUHU216HW,2013-01-27 19:13:00,
2013-01-27 12:18:00,53.6,43.3,29.86,North,0,0.0,0.0,68,0.00, +FZSN FG BLRA SQ BLRA,OVC100 VV000 5SM,0.12,WUHU216HW,2013-01-27 19:18:00,
2013-01-27 12:23:00,54.0,42.8,29.86,North,0,0.0,0.0,66,0.00, +FZSN FG BLRA SQ BLRA,OVC100 VV000 5SM,0.12,WUHU216HW,2013-01-27 19:23:00,
2013-01-27 12:28:00,53.3,43.0,29.86,North,0,0.0,0.0,68,0.00, +FZSN FG BLRA SQ BLRA,OVC100 VV000 5SM,0.12,WUHU216HW,2013-01-27 19:28:00,
2013-01-27 12:33:00,53.3,43.7,29.85,North,0,0.0,0.0,70,0.00, +FZSN FG BLRA SQ BLRA,OVC100 VV000 5SM,0.12,WUHU216HW,2013-01-27 19:33:00,
2013-01-27 12:38:00,53.3,43.4,29.84,North,0,0.0,0.0,69,0.00, +FZSN FG BLRA SQ BLRA,OVC100 VV000 5SM,0.12,WUHU216HW,2013-01-27 19:38:00,
2013-01-27 12:43:00,52.9,44.2,29.84,North,0,0.0,0.0,72,0.00, +FZSN FG BLRA SQ BLRA,OVC100 VV000 5SM,0.12,WUHU216HW,2013-01-27 19:43:00,
2013-01-27 12:48:00,52.7,44.0,29.84,North,0,0.0,0.0,72,0.00, +FZSN FG BLRA SQ BLRA,OVC100 VV000 5SM,0.12,WUHU216HW,2013-01-27 19:48:00,
2013-01-27 12:53:00,52.2,43.8,29.84,North,0,0.0,0.0,73,0.00, +FZSN FG BLRA SQ BLRA,OVC100 VV000 5SM,0.12,WUHU216HW,2013-01-27 19:53:00,
2013-01-27 12:58:00,51.8,45.2,29.84,North,0,0.0,0.0,78,0.00, +FZSN FG BLRA SQ BLRA,OVC100 VV000 5SM,0.12,WUHU216HW,2013-01-27 19:58:00,
2013-01-27 13:03:00,51.1,44.2,29.84,North,0,0.0,0.0,77,0.00, +FZSN FG BLRA SQ BLRA,OVC100 VV000 5SM,0.12,WUHU216HW,2013-01-27 20:03:00,
2013-01-27 13:08:00,50.8,44.1,29.84,North,0,0.0,0.0,78,0.00, +FZSN FG BLRA SQ BLRA,OVC100 VV000 5SM,0.12,WUHU216HW,2013-01-27 20:08:00,
2013-01-27 13:13:00,50.8,44.5,29.84,North,0,0.0,0.0,79,0.00, +FZSN FG BLRA SQ BLRA,OVC100 VV000 5SM,0.12,WUHU216HW,2013-01-27 20:13:00,
2013-01-27 13:18:00,50.8,44.8,29.84,North,0,0.0,0.0,80,0.00, +FZSN FG BLRA SQ BLRA,OVC100 VV000 5SM,0.12,WUHU216HW,2013-01-27 20:18:00,
2013-01-27 13:23:00,51.1,45.2,29.84,North,0,0.0,0.0,80,0.00, +FZSN FG BLRA SQ BLRA,OVC100 VV000 5SM,0.12,WUHU216HW,2013-01-27 20:23:00,
2013-01-27 13:28:00,51.1,45.5,29.83,North,0,0.0,0.0,81,0.00, +FZSN FG BLRA SQ BLRA,OVC100 VV000 5SM,0.12,WUHU216HW,2013-01-27 20:28:00,
2013-01-27 13:33:00,50.9,45.0,29.83,North,0,0.0,0.0,80,0.00, +FZSN FG BLRA SQ BLRA,OVC100 VV000 5SM,0.12,WUHU216HW,2013-01-27 20:33:00,
2013-01-27 13:38:00,50.6,44.6,29.83,North,0,0.0,0.0,80,0.00, +FZSN FG BLRA SQ BLRA,OVC100 VV000 5SM,0.12,WUHU216HW,2013-01-27 20:38:00,
2013-01-27 13:43:00,50.4,44.7,29.83,North,0,0.0,0.0,81,0.00, +FZSN FG BLRA SQ BLRA,OVC100 VV000 5SM,0.12,WUHU216HW,2013-01-27 20:43:00,
2013-01-27 13:48:00,50.2,44.9,29.83,North,0,0.0,0.0,82,0.01, +FZSN FG BLRA SQ BLRA,OVC100 VV000 5SM,0.13,WUHU216HW,2013-01-27 20:48:00,
2013-01-27 13:53:00,50.2,45.2,29.82,North,0,0.0,0.0,83,0.01, +FZSN FG BLRA SQ BLRA,OVC100 VV000 5SM,0.13,WUHU216HW,2013-01-27 20:53:00,
2013-01-27 13:58:00,50.8,45.7,29.82,North,0,0.0,0.0,83,0.01, +FZSN FG BLRA SQ BLRA,OVC100 VV000 5SM,0.13,WUHU216HW,2013-01-27 20:58:00,
2013-01-27 14:03:00,50.8,45.5,29.82,North,0,0.0,0.0,82,0.01, +FZSN FG BLRA SQ BLRA,OVC100 VV000 5SM,0.13,WUHU216HW,2013-01-27 21:03:00,
2013-01-27 14:08:00,50.8,44.8,29.82,North,0,0.0,0.0,80,0.01, +FZSN FG BLRA SQ BLRA,OVC100 VV000 5SM,0.13,WUHU216HW,2013-01-27 21:08:00,
2013-01-27 14:13:00,50.6,45.3,29.82,North,0,0.0,0.0,82,0.01, +FZSN FG BLRA SQ BLRA,OVC100 VV000 5SM,0.13,WUHU216HW,2013-01-27 21:13:00,
2013-01-27 14:18:00,50.4,45.1,29.82,North,0,0.0,0.0,82,0.01, +FZSN FG BLRA SQ BLRA,OVC100 VV000 5SM,0.13,WUHU216HW,2013-01-27 21:18:00,
2013-01-27 14:23:00,50.2,44.6,29.81,North,0,0.0,0.0,81,0.01, +FZSN FG BLRA SQ BLRA,OVC100 VV000 5SM,0.13,WUHU216HW,2013-01-27 21:23:00,
2013-01-27 14:28:00,50.0,44.4,29.81,North,0,0.0,0.0,81,0.01, +FZSN FG BLRA SQ BLRA,OVC100 VV000 5SM,0.13,WUHU216HW,2013-01-27 21:28:00,
2013-01-27 14:33:00,49.3,44.3,29.82,North,0,0.0,0.0,83,0.01, +FZSN FG BLRA SQ BLRA,OVC100 VV000 5SM,0.13,WUHU216HW,2013-01-27 21:33:00,
2013-01-27 14:38:00,49.0,44.3,29.82,North,0,0.0,0.0,84,0.01, +FZSN FG BLRA SQ BLRA,OVC100 VV000 5SM,0.13,WUHU216HW,2013-01-27 21:38:00,
2013-01-27 14:43:00,48.8,44.5,29.82,North,0,0.0,0.0,85,0.01, +FZSN FG BLRA SQ BLRA,OVC100 VV000 5SM,0.13,WUHU216HW,2013-01-27 21:43:00,
2013-01-27 14:48:00,49.0,44.3,29.82,North,0,0.0,0.0,84,0.00, +FZSN FG BLRA SQ BLRA,OVC100 VV000 5SM,0.13,WUHU216HW,2013-01-27 21:48:00,
2013-01-27 14:53:00,49.0,44.7,29.82,North,0,0.0,0.0,85,0.00, +FZSN FG BLRA SQ BLRA,OVC100 VV000 5SM,0.13,WUHU216HW,2013-01-27 21:53:00,
2013-01-27 14:58:00,49.0,44.7,29.82,North,0,0.0,0.0,85,0.00, +FZSN FG BLRA SQ BLRA,OVC100 VV000 5SM,0.13,WUHU216HW,2013-01-27 21:58:00,
2013-01-27 15:03:00,49.0,44.9,29.82,North,0,0.0,0.0,86,0.01, +FZSN FG BLRA SQ BLRA,OVC100 VV000 5SM,0.14,WUHU216HW,2013-01-27 22:03:00,
2013-01-27 15:08:00,49.0,44.9,29.81,North,0,0.0,0.0,86,0.01, +FZSN FG BLRA SQ BLRA,OVC100 VV000 5SM,0.14,WUHU216HW,2013-01-27 22:08:00,
2013-01-27 15:13:00,49.5,45.5,29.81,North,0,0.0,0.0,86,0.01, +FZSN FG BLRA SQ BLRA,OVC100 VV000 5SM,0.14,WUHU216HW,2013-01-27 22:13:00,
2013-01-27 15:18:00,49.7,44.4,29.81,North,0,0.0,0.0,82,0.01, +FZSN FG BLRA SQ BLRA,OVC100 VV000 5SM,0.14,WUHU216HW,2013-01-27 22:18:00,
2013-01-27 15:23:00,49.9,44.8,29.81,North,0,0.0,0.0,83,0.01, +FZSN FG BLRA SQ BLRA,OVC100 VV000 5SM,0.14,WUHU216HW,2013-01-27 22:23:00,
2013-01-27 15:28:00,50.0,44.4,29.81,North,0,0.0,0.0,81,0.01, +FZSN FG BLRA SQ BLRA,OVC100 VV000 5SM,0.14,WUHU216HW,2013-01-27 22:28:00,
2013-01-27 15:33:00,50.0,44.4,29.82,North,0,0.0,0.0,81,0.01, +FZSN FG BLRA SQ BLRA,OVC100 VV000 5SM,0.14,WUHU216HW,2013-01-27 22:33:00,
2013-01-27 15:38:00,50.2,44.6,29.82,North,0,0.0,0.0,81,0.01, +FZSN FG BLRA SQ BLRA,OVC100 VV000 5SM,0.14,WUHU216HW,2013-01-27 22:38:00,
2013-01-27 15:43:00,50.4,44.1,29.81,North,0,0.0,0.0,79,0.01, +FZSN FG BLRA SQ BLRA,OVC100 VV000 5SM,0.14,WUHU216HW,2013-01-27 22:43:00,
2013-01-27 15:48:00,50.2,44.3,29.81,North,0,0.0,0.0,80,0.01, +FZSN FG BLRA SQ BLRA,OVC100 VV000 5SM,0.14,WUHU216HW,2013-01-27 22:48:00,
2013-01-27 15:53:00,50.0,43.7,29.81,North,0,0.0,0.0,79,0.02, +FZSN FG BLRA SQ BLRA,OVC100 VV000 5SM,0.15,WUHU216HW,2013-01-27 22:53:00,
2013-01-27 15:58:00,49.9,43.9,29.81,North,0,0.0,0.0,80,0.01, +FZSN FG BLRA SQ BLRA,OVC100 VV000 5SM,0.15,WUHU216HW,2013-01-27 22:58:00,
2013-01-27 16:03:00,49.7,42.8,29.81,North,0,0.0,0.0,77,0.01, +FZSN FG BLRA SQ BLRA,OVC100 VV000 5SM,0.15,WUHU216HW,2013-01-27 23:03:00,
2013-01-27 16:08:00,50.0,42.4,29.81,North,0,0.0,0.0,75,0.01, +FZSN FG BLRA SQ BLRA,OVC100 VV000 5SM,0.15,WUHU216HW,2013-01-27 23:08:00,
2013-01-27 16:13:00,50.0,42.4,29.81,North,0,0.0,0.0,75,0.01, +FZSN FG BLRA SQ BLRA,OVC100 VV000 5SM,0.15,WUHU216HW,2013-01-27 23:13:00,
2013-01-27 16:18:00,50.8,43.8,29.81,North,0,0.0,0.0,77,0.01, +FZSN FG BLRA SQ BLRA,OVC100 VV000 5SM,0.15,WUHU216HW,2013-01-27 23:18:00,
2013-01-27 16:23:00,50.8,43.1,29.81,North,0,0.0,0.0,75,0.01, +FZSN FG BLRA SQ BLRA,OVC100 VV000 5SM,0.15,WUHU216HW,2013-01-27 23:23:00,
2013-01-27 16:28:00,50.9,42.9,29.81,North,0,0.0,0.0,74,0.01, +FZSN FG BLRA SQ BLRA,OVC100 VV000 5SM,0.15,WUHU216HW,2013-01-27 23:28:00,
2013-01-27 16:33:00,50.6,42.2,29.81,North,0,0.0,0.0,73,0.01, +FZSN FG BLRA SQ BLRA,OVC100 VV000 5SM,0.15,WUHU216HW,2013-01-27 23:33:00,
2013-01-27 16:38:00,50.0,42.0,29.81,North,0,0.0,0.0,74,0.01, +FZSN FG BLRA SQ BLRA,OVC100 VV000 5SM,0.15,WUHU216HW,2013-01-27 23:38:00,
2013-01-27 16:43:00,50.0,42.4,29.81,North,0,0.0,0.0,75,0.01, +FZSN FG BLRA SQ BLRA,OVC100 VV000 5SM,0.15,WUHU216HW,2013-01-27 23:43:00,
2013-01-27 16:48:00,50.2,42.6,29.81,North,0,0.0,0.0,75,0.01, +FZSN FG BLRA SQ BLRA,OVC100 VV000 5SM,0.15,WUHU216HW,2013-01-27 23:48:00,
2013-01-27 16:53:00,50.0,42.4,29.81,North,0,0.0,0.0,75,0.00, +FZSN FG BLRA SQ BLRA,OVC100 VV000 5SM,0.15,WUHU216HW,2013-01-27 23:53:00,
2013-01-27 16:58:00,50.0,42.4,29.81,North,0,0.0,0.0,75,0.01, +FZSN FG BLRA SQ BLRA,OVC100 VV000 5SM,0.16,WUHU216HW,2013-01-27 23:58:00,
2013-01-27 17:03:00,49.9,41.9,29.81,North,0,0.0,0.0,74,0.01, +FZSN FG BLRA SQ BLRA,OVC100 VV000 5SM,0.16,WUHU216HW,2013-01-28 00:03:00,
2013-01-27 17:08:00,49.5,41.1,29.81,North,0,0.0,0.0,73,0.01, +FZSN FG BLRA SQ BLRA,OVC100 VV000 5SM,0.16,WUHU216HW,2013-01-28 00:08:00,
2013-01-27 17:13:00,49.3,41.3,29.81,North,0,0.0,0.0,74,0.01, +FZSN FG BLRA SQ BLRA,OVC100 VV000 5SM,0.16,WUHU216HW,2013-01-28 00:13:00,
2013-01-27 17:18:00,49.1,41.5,29.81,North,0,0.0,0.0,75,0.01, +FZSN FG BLRA SQ BLRA,OVC100 VV000 5SM,0.16,WUHU216HW,2013-01-28 00:18:00,
2013-01-27 17:23:00,49.0,41.3,29.81,North,0,0.0,0.0,75,0.01, +FZSN FG BLRA SQ BLRA,OVC100 VV000 5SM,0.16,WUHU216HW,2013-01-28 00:23:00,
2013-01-27 17:28:00,48.6,41.0,29.81,North,0,0.0,0.0,75,0.01, +FZSN FG BLRA SQ BLRA,OVC100 VV000 5SM,0.16,WUHU216HW,2013-01-28 00:28:00,
2013-01-27 17:33:00,48.4,40.4,29.81,North,0,0.0,0.0,74,0.01, +FZSN FG BLRA SQ BLRA,OVC100 VV000 5SM,0.16,WUHU216HW,2013-01-28 00:33:00,
2013-01-27 17:38:00,48.2,39.9,29.81,North,0,0.0,0.0,73,0.01, +FZSN FG BLRA SQ BLRA,OVC100 VV000 5SM,0.16,WUHU216HW,2013-01-28 00:38:00,
2013-01-27 17:43:00,47.9,40.0,29.81,North,0,0.0,0.0,74,0.01, +FZSN FG BLRA SQ BLRA,OVC100 VV000 5SM,0.16,WUHU216HW,2013-01-28 00:43:00,
2013-01-27 17:48:00,47.7,40.2,29.81,North,0,0.0,0.0,75,0.01, +FZSN FG BLRA SQ BLRA,OVC100 VV000 5SM,0.16,WUHU216HW,2013-01-28 00:48:00,
2013-01-27 17:53:00,47.5,39.6,29.80,North,0,0.0,0.0,74,0.00, +FZSN FG BLRA SQ BLRA,OVC100 VV000 5SM,0.16,WUHU216HW,2013-01-28 00:53:00,
2013-01-27 17:58:00,47.3,38.8,29.80,North,0,0.0,0.0,72,0.00, +FZSN FG BLRA SQ BLRA,OVC100 VV000 5SM,0.16,WUHU216HW,2013-01-28 00:58:00,
2013-01-27 18:03:00,47.2,39.0,29.80,North,0,0.0,0.0,73,0.00, +FZSN FG BLRA SQ BLRA,OVC100 VV000 5SM,0.16,WUHU216HW,2013-01-28 01:03:00,
2013-01-27 18:08:00,47.0,39.2,29.80,North,0,0.0,0.0,74,0.00, +FZSN FG BLRA SQ BLRA,OVC100 VV000 5SM,0.16,WUHU216HW,2013-01-28 01:08:00,
2013-01-27 18:13:00,46.8,39.0,29.80,North,0,0.0,0.0,74,0.00, +FZSN FG BLRA SQ BLRA,OVC100 VV000 5SM,0.16,WUHU216HW,2013-01-28 01:13:00,
2013-01-27 18:18:00,46.8,39.3,29.80,North,0,0.0,0.0,75,0.00, +FZSN FG BLRA SQ BLRA,OVC100 VV000 5SM,0.16,WUHU216HW,2013-01-28 01:18:00,
2013-01-27 18:23:00,46.6,39.2,29.81,North,0,0.0,0.0,75,0.00, +FZSN FG BLRA SQ BLRA,OVC100 VV000 5SM,0.16,WUHU216HW,2013-01-28 01:23:00,
2013-01-27 18:28:00,46.4,39.3,29.80,North,0,0.0,0.0,76,0.00, +FZSN FG BLRA SQ BLRA,OVC100 VV000 5SM,0.16,WUHU216HW,2013-01-28 01:28:00,
2013-01-27 18:33:00,46.4,39.7,29.81,North,0,0.0,0.0,77,0.00, +FZSN FG BLRA SQ BLRA,OVC100 VV000 5SM,0.16,WUHU216HW,2013-01-28 01:33:00,
2013-01-27 18:38:00,46.4,39.3,29.81,North,0,0.0,0.0,76,0.00, +FZSN FG BLRA SQ BLRA,OVC100 VV000 5SM,0.16,WUHU216HW,2013-01-28 01:38:00,
2013-01-27 18:43:00,46.6,39.2,29.81,North,0,0.0,0.0,75,0.00, +FZSN FG BLRA SQ BLRA,OVC100 VV000 5SM,0.16,WUHU216HW,2013-01-28 01:43:00,
2013-01-27 18:48:00,46.6,39.5,29.81,North,0,0.0,0.0,76,0.00, +FZSN FG BLRA SQ BLRA,OVC100 VV000 5SM,0.16,WUHU216HW,2013-01-28 01:48:00,
2013-01-27 18:53:00,46.8,39.6,29.81,North,0,0.0,0.0,76,0.00, +FZSN FG BLRA SQ BLRA,OVC100 VV000 5SM,0.16,WUHU216HW,2013-01-28 01:53:00,
2013-01-27 18:58:00,46.6,39.5,29.81,North,0,0.0,0.0,76,0.00, +FZSN FG BLRA SQ BLRA,OVC100 VV000 5SM,0.16,WUHU216HW,2013-01-28 01:58:00,
2013-01-27 19:03:00,46.4,39.7,29.81,North,0,0.0,0.0,77,0.00, +FZSN FG BLRA SQ BLRA,OVC100 VV000 5SM,0.16,WUHU216HW,2013-01-28 02:03:00,
2013-01-27 19:08:00,46.4,39.7,29.81,North,0,0.0,0.0,77,0.00, +FZSN FG BLRA SQ BLRA,OVC100 VV000 5SM,0.16,WUHU216HW,2013-01-28 02:08:00,
2013-01-27 19:13:00,46.3,39.8,29.81,North,0,0.0,0.0,78,0.00, +FZSN FG BLRA SQ BLRA,OVC100 VV000 5SM,0.16,WUHU216HW,2013-01-28 02:13:00,
2013-01-27 19:18:00,46.1,39.6,29.81,North,0,0.0,0.0,78,0.00, +FZSN FG BLRA SQ BLRA,OVC100 VV000 5SM,0.16,WUHU216HW,2013-01-28 02:18:00,
2013-01-27 19:23:00,46.1,39.3,29.81,North,0,0.0,0.0,77,0.00, +FZSN FG BLRA SQ BLRA,OVC100 VV000 5SM,0.16,WUHU216HW,2013-01-28 02:23:00,
2013-01-27 19:28:00,46.1,39.3,29.81,North,0,0.0,0.0,77,0.00, +FZSN FG BLRA SQ BLRA,OVC100 VV000 5SM,0.16,WUHU216HW,2013-01-28 02:28:00,
2013-01-27 19:33:00,45.9,39.2,29.81,North,0,0.0,0.0,77,0.00, +FZSN FG BLRA SQ BLRA,OVC100 VV000 5SM,0.16,WUHU216HW,2013-01-28 02:33:00,
2013-01-27 19:38:00,45.7,39.2,29.81,North,0,0.0,0.0,78,0.00, +FZSN FG BLRA SQ BLRA,OVC100 VV000 5SM,0.16,WUHU216HW,2013-01-28 02:38:00,
2013-01-27 19:43:00,45.7,39.2,29.81,North,0,0.0,0.0,78,0.00, +FZSN FG BLRA SQ BLRA,OVC100 VV000 5SM,0.16,WUHU216HW,2013-01-28 02:43:00,
2013-01-27 19:48:00,45.7,39.2,29.81,North,0,0.0,0.0,78,0.00, +FZSN FG BLRA SQ BLRA,OVC100 VV000 5SM,0.16,WUHU216HW,2013-01-28 02:48:00,
2013-01-27 19:53:00,46.1,39.6,29.81,North,0,0.0,0.0,78,0.00, +FZSN FG BLRA SQ BLRA,OVC100 VV000 5SM,0.16,WUHU216HW,2013-01-28 02:53:00,
2013-01-27 19:58:00,46.3,39.5,29.81,North,0,0.0,0.0,77,0.00, +FZSN FG BLRA SQ BLRA,OVC100 VV000 5SM,0.16,WUHU216HW,2013-01-28 02:58:00,
2013-01-27 20:03:00,46.1,39.3,29.81,North,0,0.0,0.0,77,0.00, +FZSN FG BLRA SQ BLRA,OVC100 VV000 5SM,0.16,WUHU216HW,2013-01-28 03:03:00,
2013-01-27 20:08:00,46.1,39.3,29.81,North,0,0.0,0.0,77,0.00, +FZSN FG BLRA SQ BLRA,OVC100 VV000 5SM,0.16,WUHU216HW,2013-01-28 03:08:00,
2013-01-27 20:13:00,45.7,39.2,29.81,North,0,0.0,0.0,78,0.00, +FZSN FG BLRA SQ BLRA,OVC100 VV000 5SM,0.16,WUHU216HW,2013-01-28 03:13:00,
2013-01-27 20:18:00,45.7,39.0,29.81,North,0,0.0,0.0,77,0.00, +FZSN FG BLRA SQ BLRA,OVC100 VV000 5SM,0.16,WUHU216HW,2013-01-28 03:18:00,
2013-01-27 20:23:00,45.9,39.2,29.80,North,0,0.0,0.0,77,0.00, +FZSN FG BLRA SQ BLRA,OVC100 VV000 5SM,0.16,WUHU216HW,2013-01-28 03:23:00,
2013-01-27 20:28:00,45.7,39.0,29.80,North,0,0.0,0.0,77,0.00, +FZSN FG BLRA SQ BLRA,OVC100 VV000 5SM,0.16,WUHU216HW,2013-01-28 03:28:00,
2013-01-27 20:33:00,45.7,39.2,29.80,North,0,0.0,0.0,78,0.00, +FZSN FG BLRA SQ BLRA,OVC100 VV000 5SM,0.16,WUHU216HW,2013-01-28 03:33:00,
2013-01-27 20:38:00,45.5,38.8,29.80,North,0,0.0,0.0,77,0.00, +FZSN FG BLRA SQ BLRA,OVC100 VV000 5SM,0.16,WUHU216HW,2013-01-28 03:38:00,
2013-01-27 20:43:00,45.4,38.6,29.80,North,0,0.0,0.0,77,0.00, +FZSN FG BLRA SQ BLRA,OVC100 VV000 5SM,0.16,WUHU216HW,2013-01-28 03:43:00,
2013-01-27 20:48:00,45.5,39.1,29.80,North,0,0.0,0.0,78,0.00, +FZSN FG BLRA SQ BLRA,OVC100 VV000 5SM,0.16,WUHU216HW,2013-01-28 03:48:00,
2013-01-27 20:53:00,45.4,38.6,29.80,North,0,0.0,0.0,77,0.00, +FZSN FG BLRA SQ BLRA,OVC100 VV000 5SM,0.16,WUHU216HW,2013-01-28 03:53:00,
2013-01-27 20:58:00,45.4,38.6,29.80,North,0,0.0,0.0,77,0.00, +FZSN FG BLRA SQ BLRA,OVC100 VV000 5SM,0.16,WUHU216HW,2013-01-28 03:58:00,
2013-01-27 21:03:00,45.4,38.6,29.80,North,0,0.0,0.0,77,0.00, +FZSN FG BLRA SQ BLRA,OVC100 VV000 5SM,0.16,WUHU216HW,2013-01-28 04:03:00,
2013-01-27 21:08:00,45.5,38.8,29.80,North,0,0.0,0.0,77,0.00, +FZSN FG BLRA SQ BLRA,OVC100 VV000 5SM,0.16,WUHU216HW,2013-01-28 04:08:00,
2013-01-27 21:13:00,45.2,38.4,29.80,North,0,0.0,0.0,77,0.00, +FZSN FG BLRA SQ BLRA,OVC100 VV000 5SM,0.16,WUHU216HW,2013-01-28 04:13:00,
2013-01-27 21:18:00,45.0,38.3,29.80,North,0,0.0,0.0,77,0.00, +FZSN FG BLRA SQ BLRA,OVC100 VV000 5SM,0.16,WUHU216HW,2013-01-28 04:18:00,
2013-01-27 21:23:00,45.0,37.9,29.80,North,0,0.0,0.0,76,0.00, +FZSN FG BLRA SQ BLRA,OVC100 VV000 5SM,0.16,WUHU216HW,2013-01-28 04:23:00,
2013-01-27 21:28:00,45.0,37.2,29.80,North,0,0.0,0.0,74,0.00, +FZSN FG BLRA SQ BLRA,OVC100 VV000 5SM,0.16,WUHU216HW,2013-01-28 04:28:00,
2013-01-27 21:33:00,45.2,37.4,29.80,North,0,0.0,0.0,74,0.00, +FZSN FG BLRA SQ BLRA,OVC100 VV000 5SM,0.16,WUHU216HW,2013-01-28 04:33:00,
2013-01-27 21:38:00,45.0,37.5,29.81,North,0,0.0,0.0,75,0.00, +FZSN FG BLRA SQ BLRA,OVC100 VV000 5SM,0.16,WUHU216HW,2013-01-28 04:38:00,
2013-01-27 21:43:00,44.8,37.4,29.80,North,0,0.0,0.0,75,0.00, +FZSN FG BLRA SQ BLRA,OVC100 VV000 5SM,0.16,WUHU216HW,2013-01-28 04:43:00,
2013-01-27 21:48:00,44.6,37.5,29.80,North,0,0.0,0.0,76,0.00, +FZSN FG BLRA SQ BLRA,OVC100 VV000 5SM,0.16,WUHU216HW,2013-01-28 04:48:00,
2013-01-27 21:53:00,44.6,37.5,29.81,North,0,0.0,0.0,76,0.00, +FZSN FG BLRA SQ BLRA,OVC100 VV000 5SM,0.16,WUHU216HW,2013-01-28 04:53:00,
2013-01-27 21:58:00,45.2,37.0,29.80,North,0,0.0,0.0,73,0.00, +FZSN FG BLRA SQ BLRA,OVC100 VV000 5SM,0.16,WUHU216HW,2013-01-28 04:58:00,
2013-01-27 22:00:00,45.2,37.4,29.80,North,0,0.0,0.0,74,0.00, +FZSN FG BLRA SQ BLRA,OVC100 VV000 5SM,0.16,WUHU216HW,2013-01-28 05:00:00,
2013-01-27 22:01:00,45.4,37.5,29.80,North,0,0.0,0.0,74,0.00, +FZSN FG BLRA SQ BLRA,OVC100 VV000 5SM,0.16,WUHU216HW,2013-01-28 05:01:00,
2013-01-27 22:03:00,45.0,37.2,29.80,North,0,0.0,0.0,74,0.00, +FZSN FG BLRA SQ BLRA,OVC100 VV000 5SM,0.16,WUHU216HW,2013-01-28 05:03:00,
2013-01-27 22:08:00,44.6,36.8,29.79,North,0,0.0,0.0,74,0.00, +FZSN FG BLRA SQ BLRA,OVC100 VV000 5SM,0.16,WUHU216HW,2013-01-28 05:08:00,
2013-01-27 22:13:00,44.6,36.8,29.80,North,0,0.0,0.0,74,0.00, +FZSN FG BLRA SQ BLRA,OVC100 VV000 5SM,0.16,WUHU216HW,2013-01-28 05:13:00,
2013-01-27 22:18:00,44.6,36.8,29.80,North,0,0.0,0.0,74,0.00, +FZSN FG BLRA SQ BLRA,OVC100 VV000 5SM,0.16,WUHU216HW,2013-01-28 05:18:00,
2013-01-27 22:23:00,44.6,36.8,29.80,North,0,0.0,0.0,74,0.00, +FZSN FG BLRA SQ BLRA,OVC100 VV000 5SM,0.16,WUHU216HW,2013-01-28 05:23:00,
2013-01-27 22:28:00,44.6,36.8,29.79,North,0,0.0,0.0,74,0.00, +FZSN FG BLRA SQ BLRA,OVC100 VV000 5SM,0.16,WUHU216HW,2013-01-28 05:28:00,
2013-01-27 22:33:00,44.5,36.6,29.79,North,0,0.0,0.0,74,0.00, +FZSN FG BLRA SQ BLRA,OVC100 VV000 5SM,0.16,WUHU216HW,2013-01-28 05:33:00,
2013-01-27 22:38:00,44.6,36.2,29.79,North,0,0.0,0.0,72,0.00, +FZSN FG BLRA SQ BLRA,OVC100 VV000 5SM,0.16,WUHU216HW,2013-01-28 05:38:00,
2013-01-27 22:43:00,44.5,36.4,29.79,North,0,0.0,0.0,73,0.00, +FZSN FG BLRA SQ BLRA,OVC100 VV000 5SM,0.16,WUHU216HW,2013-01-28 05:43:00,
2013-01-27 22:48:00,44.3,36.5,29.78,North,0,0.0,0.0,74,0.00, +FZSN FG BLRA SQ BLRA,OVC100 VV000 5SM,0.16,WUHU216HW,2013-01-28 05:48:00,
2013-01-27 22:53:00,44.3,36.5,29.79,North,0,0.0,0.0,74,0.00, +FZSN FG BLRA SQ BLRA,OVC100 VV000 5SM,0.16,WUHU216HW,2013-01-28 05:53:00,
2013-01-27 22:58:00,44.1,36.4,29.79,North,0,0.0,0.0,74,0.00, +FZSN FG BLRA SQ BLRA,OVC100 VV000 5SM,0.16,WUHU216HW,2013-01-28 05:58:00,
2013-01-27 23:03:00,44.1,36.6,29.79,North,0,0.0,0.0,75,0.00, +FZSN FG BLRA SQ BLRA,OVC100 VV000 5SM,0.16,WUHU216HW,2013-01-28 06:03:00,
2013-01-27 23:08:00,44.1,37.0,29.79,North,0,0.0,0.0,76,0.00, +FZSN FG BLRA SQ BLRA,OVC100 VV000 5SM,0.16,WUHU216HW,2013-01-28 06:08:00,
2013-01-27 23:13:00,44.1,37.0,29.79,North,0,0.0,0.0,76,0.00, +FZSN FG BLRA SQ BLRA,OVC100 VV000 5SM,0.16,WUHU216HW,2013-01-28 06:13:00,
2013-01-27 23:18:00,44.1,37.4,29.79,North,0,0.0,0.0,77,0.00, +FZSN FG BLRA SQ BLRA,OVC100 VV000 5SM,0.16,WUHU216HW,2013-01-28 06:18:00,
2013-01-27 23:23:00,44.1,36.4,29.79,North,0,0.0,0.0,74,0.00, +FZSN FG BLRA SQ BLRA,OVC100 VV000 5SM,0.16,WUHU216HW,2013-01-28 06:23:00,
2013-01-27 23:28:00,43.9,35.2,29.79,North,0,0.0,0.0,71,0.00, +FZSN FG BLRA SQ BLRA,OVC100 VV000 5SM,0.16,WUHU216HW,2013-01-28 06:28:00,
2013-01-27 23:33:00,43.6,35.8,29.79,North,0,0.0,0.0,74,0.00, +FZSN FG BLRA SQ BLRA,OVC100 VV000 5SM,0.16,WUHU216HW,2013-01-28 06:33:00,
2013-01-27 23:38:00,43.0,36.0,29.79,North,0,0.0,0.0,76,0.00, +FZSN FG BLRA SQ BLRA,OVC100 VV000 5SM,0.16,WUHU216HW,2013-01-28 06:38:00,
2013-01-27 23:43:00,42.7,35.9,29.78,North,0,0.0,0.0,77,0.00, +FZSN FG BLRA SQ BLRA,OVC100 VV000 5SM,0.16,WUHU216HW,2013-01-28 06:43:00,
2013-01-27 23:48:00,42.7,36.3,29.78,North,0,0.0,0.0,78,0.00, +FZSN FG BLRA SQ BLRA,OVC100 VV000 5SM,0.16,WUHU216HW,2013-01-28 06:48:00,
2013-01-27 23:53:00,42.5,36.4,29.78,North,0,0.0,0.0,79,0.00, +FZSN FG BLRA SQ BLRA,OVC100 VV000 5SM,0.16,WUHU216HW,2013-01-28 06:53:00,
2013-01-27 23:58:00,42.3,36.5,29.79,North,0,0.0,0.0,80,0.00, +FZSN FG BLRA SQ BLRA,OVC100 VV000 5SM,0.16,WUHU216HW,2013-01-28 06:58:00,